Blairstown, NJ (07825)

4:24 PM EDT on October 23, 2014 (GMT -0400)
Heller Hill | Change Station
CLOSE
Current Station
Personal Weather Station
Location: Blairstown, NJ
Elevation: 660 ft
Nearby Weather Stations

Elev 660 ft 40.96 °N, 74.97 °W | Updated 210 days ago

Rain
Rain
48 °F
Feels Like 48 °F
N
14
Wind Variable Wind from NNW
Gusts 19 mph

Today
High -- | Low -- °F
--% Chance of Precip.
Yesterday
High -- | Low -- °F
Precip. -- in
7:20 AM 6:07 PM
Waning Crescent, 0% visible
Pressure 29.77 in
Visibility 10.0 miles
Clouds Overcast 3000 ft
Dew Point 43 °F
Humidity 78%
Rainfall 0.00 in
Snow Depth Not available.
UV 1 out of 12
Pollen .10 out of 12
Air Quality Not available.
Flu Activity Sporadic
METAR KFWN 231953Z AUTO 33007G15KT 290V020 10SM OVC030 12/07 A2976 RMK AO2 SLP079 T01170072

More Conditions Fewer Conditions

Pressure 29.77 in
Visibility 10.0 miles
Clouds Overcast 3000 ft
Dew Point 43 °F
Humidity 78%
Rainfall 0.00 in
Snow Depth Not available.
UV 1 out of 12
Pollen .10 out of 12
Air Quality Not available.
Flu Activity Sporadic
METAR KFWN 231953Z AUTO 33007G15KT 290V020 10SM OVC030 12/07 A2976 RMK AO2 SLP079 T01170072

More Conditions Fewer Conditions

10-Day Weather Forecast

Almanac

Astronomy

Oct. 23, 2014 Rise Set
Actual Time 7:20 AM EDT 6:07 PM EDT
Civil Twilight 6:52 AM EDT 6:35 PM EDT
Nautical Twilight 6:20 AM EDT 7:07 PM EDT
Astronomical Twilight 5:48 AM EDT 7:39 PM EDT
Moon 6:57 AM EDT 6:07 PM EDT
Length of Visible Light 11h 43m
Length of Day
10h 47m
Tomorrow will be 2m 33s shorter.
Waning Crescent, 0% of the Moon is Illuminated
Today
Waning Crescent
Oct 23
New
Oct 30
First Quarter
Nov 6
Full
Nov 14
Last Quarter

Today's Extremes

State Highs State Lows

Community

WunderPhotos

Upload Photos

1,764,361 photos uploaded!

WunderBlogs® & News

By Dr. Jeff Masters
Director of Meteorology, Weather Underground
By Kari Strenfel
Meteorologist, Weather Underground
By Christopher C. Burt
Weather Historian, Weather Underground
October 23, 2014
October 23, 2014
October 23, 2014

Nearby

Snow Depth

Station Depth Elevation
No new snow has been reported.

Earthquake Activity

City Distance Mag. Time & Date
No recent earthquake activity has been reported nearby.
Minimum magnitude displayed is 2.5.

Coastal Water Temperatures

Place Temperature
No Stations Reporting

Nearby Weather Stations